createdAt,value
2022-11-01T00:02:01.944Z,98647.53
2022-11-01T00:04:29.784Z,98645.81
2022-11-01T00:06:57.575Z,98642.38
2022-11-01T00:09:25.378Z,98642.28
2022-11-01T00:11:53.061Z,98638.31
2022-11-01T00:14:22.412Z,98640.31
2022-11-01T00:16:50.690Z,98635.31
2022-11-01T00:19:18.597Z,98637.97
2022-11-01T00:21:46.420Z,98630.69
2022-11-01T00:24:14.458Z,98631.66
2022-11-01T00:26:42.260Z,98634.72
2022-11-01T00:29:10.161Z,98630.69
2022-11-01T00:31:39.329Z,98628.41
2022-11-01T00:34:07.098Z,98624.41
2022-11-01T00:36:35.057Z,98618.69
2022-11-01T00:39:03.182Z,98616.41
2022-11-01T00:41:30.866Z,98623.31
2022-11-01T00:43:58.584Z,98627.97
2022-11-01T00:46:26.512Z,98632.25
2022-11-01T00:48:55.597Z,98644.88
2022-11-01T00:51:23.595Z,98632.25
2022-11-01T00:53:51.465Z,98630.56
2022-11-01T00:56:19.404Z,98637.25
2022-11-01T00:58:49.552Z,98643.41
2022-11-01T01:01:17.409Z,98639.59
2022-11-01T01:03:45.251Z,98638.53
2022-11-01T01:06:14.371Z,98637.69
2022-11-01T01:08:42.118Z,98632.22
2022-11-01T01:11:09.864Z,98635.88
2022-11-01T01:13:37.579Z,98631.91
2022-11-01T01:16:09.229Z,98635.00
2022-11-01T01:18:37.035Z,98632.53
2022-11-01T01:21:06.364Z,98627.06
2022-11-01T01:23:35.617Z,98627.75
2022-11-01T01:26:07.035Z,98626.81
2022-11-01T01:28:36.695Z,98627.34
2022-11-01T01:31:08.814Z,98626.66
2022-11-01T01:33:36.942Z,98618.97
2022-11-01T01:36:06.391Z,98615.19
2022-11-01T01:38:35.530Z,98618.53
2022-11-01T01:41:17.301Z,98610.13
2022-11-01T01:43:45.641Z,98615.19
2022-11-01T01:46:13.888Z,98604.69
2022-11-01T01:48:43.629Z,98611.53
2022-11-01T01:51:14.607Z,98604.66
2022-11-01T01:53:46.297Z,98609.84
2022-11-01T01:56:17.346Z,98605.66
2022-11-01T01:58:49.376Z,98600.59
2022-11-01T02:01:17.492Z,98604.81
2022-11-01T02:03:45.843Z,98602.84
2022-11-01T02:06:16.686Z,98609.56
2022-11-01T02:08:48.658Z,98607.75
2022-11-01T02:11:17.787Z,98610.78
2022-11-01T02:13:45.782Z,98612.06
2022-11-01T02:16:39.437Z,98615.97
2022-11-01T02:19:25.789Z,98615.13
2022-11-01T02:22:04.277Z,98619.31
2022-11-01T02:25:10.912Z,98615.97
2022-11-01T02:28:02.004Z,98608.72
2022-11-01T02:30:40.162Z,98612.34
2022-11-01T02:33:21.747Z,98610.66
2022-11-01T02:35:59.133Z,98608.72
2022-11-01T02:38:30.777Z,98620.19
2022-11-01T02:41:06.638Z,98609.53
2022-11-01T02:43:45.223Z,98610.13
2022-11-01T02:46:30.916Z,98604.50
2022-11-01T02:49:00.358Z,98625.25
2022-11-01T02:51:30.997Z,98622.31
2022-11-01T02:54:02.428Z,98621.31
2022-11-01T02:56:31.247Z,98638.66
2022-11-01T02:58:59.168Z,98641.78
2022-11-01T03:01:30.805Z,98634.63
2022-11-01T03:04:04.683Z,98628.59
2022-11-01T03:06:37.701Z,98634.09
2022-11-01T03:09:08.176Z,98629.69
2022-11-01T03:11:45.146Z,98630.25
2022-11-01T03:14:24.495Z,98634.84
2022-11-01T03:16:59.599Z,98627.41
2022-11-01T03:19:36.660Z,98633.47
2022-11-01T03:22:12.072Z,98639.66
2022-11-01T03:24:48.610Z,98649.91
2022-11-01T03:27:20.612Z,98642.19
2022-11-01T03:29:56.771Z,98655.22
2022-11-01T03:32:31.298Z,98652.69
2022-11-01T03:35:04.389Z,98656.44
2022-11-01T03:37:34.527Z,98645.78
2022-11-01T03:40:05.614Z,98661.63
2022-11-01T03:42:34.401Z,98667.19
2022-11-01T03:45:08.107Z,98665.78
2022-11-01T03:47:36.512Z,98677.03
2022-11-01T03:50:20.378Z,98674.25
2022-11-01T03:52:48.711Z,98668.63
2022-11-01T03:55:21.343Z,98677.00
2022-11-01T03:57:49.802Z,98683.06
2022-11-01T04:00:20.994Z,98688.75
2022-11-01T04:02:49.101Z,98687.13
2022-11-01T04:05:18.821Z,98690.81
2022-11-01T04:07:46.851Z,98688.53
2022-11-01T04:10:15.272Z,98697.78
2022-11-01T04:12:45.936Z,98707.56
2022-11-01T04:15:31.719Z,98710.66
2022-11-01T04:18:25.264Z,98714.84
2022-11-01T04:20:54.933Z,98706.19
2022-11-01T04:23:22.673Z,98704.25
2022-11-01T04:25:50.474Z,98699.31
2022-11-01T04:28:18.417Z,98712.31
2022-11-01T04:30:46.136Z,98714.78
2022-11-01T04:33:13.805Z,98715.09
2022-11-01T04:35:41.599Z,98710.81
2022-11-01T04:38:12.009Z,98710.09
2022-11-01T04:40:40.097Z,98708.41
2022-11-01T04:43:07.973Z,98717.09
2022-11-01T04:45:35.701Z,98718.13
2022-11-01T04:48:04.982Z,98715.28
2022-11-01T04:50:33.000Z,98734.41
2022-11-01T04:53:02.487Z,98745.72
2022-11-01T04:55:32.142Z,98747.38
2022-11-01T04:57:59.868Z,98746.41
2022-11-01T05:00:28.142Z,98759.13
2022-11-01T05:03:02.569Z,98759.28
2022-11-01T05:05:30.724Z,98761.25
2022-11-01T05:10:38.691Z,98763.84
2022-11-01T05:13:06.786Z,98770.50
2022-11-01T05:15:39.900Z,98772.91
2022-11-01T05:18:15.734Z,98792.13
2022-11-01T05:20:43.529Z,98803.72
2022-11-01T05:23:11.350Z,98799.78
2022-11-01T05:25:40.427Z,98803.44
2022-11-01T05:28:10.080Z,98797.94
2022-11-01T05:30:39.013Z,98779.81
2022-11-01T05:33:07.870Z,98788.09
2022-11-01T05:35:36.816Z,98779.81
2022-11-01T05:38:06.125Z,98774.16
2022-11-01T05:40:34.400Z,98764.41
2022-11-01T05:43:03.960Z,98755.16
2022-11-01T05:45:31.996Z,98782.09
2022-11-01T05:48:03.641Z,98780.31
2022-11-01T05:50:33.929Z,98782.84
2022-11-01T05:53:08.893Z,98773.28
2022-11-01T05:55:37.419Z,98759.63
2022-11-01T05:58:07.202Z,98802.53
2022-11-01T06:00:35.724Z,98789.16
2022-11-01T06:03:04.282Z,98784.72
2022-11-01T06:05:35.196Z,98785.00
2022-11-01T06:08:04.049Z,98795.00
2022-11-01T06:10:32.504Z,98796.75
2022-11-01T06:13:00.857Z,98791.53
2022-11-01T06:15:33.089Z,98798.56
2022-11-01T06:18:04.312Z,98813.06
2022-11-01T06:20:33.635Z,98819.41
2022-11-01T06:23:01.425Z,98812.09
2022-11-01T06:25:29.457Z,98822.47
2022-11-01T06:27:57.249Z,98824.97
2022-11-01T06:30:24.989Z,98819.94
2022-11-01T06:32:54.035Z,98818.53
2022-11-01T06:35:21.738Z,98811.22
2022-11-01T06:37:49.568Z,98815.22
2022-11-01T06:40:17.422Z,98811.31
2022-11-01T06:42:46.323Z,98816.47
2022-11-01T06:45:15.558Z,98821.88
2022-11-01T06:47:47.489Z,98837.53
2022-11-01T06:50:16.974Z,98846.03
2022-11-01T06:52:44.710Z,98856.13
2022-11-01T06:55:12.604Z,98876.91
2022-11-01T06:57:43.405Z,98880.31
2022-11-01T07:00:12.247Z,98878.19
2022-11-01T07:02:40.139Z,98877.22
2022-11-01T07:05:08.771Z,98875.47
2022-11-01T07:07:37.915Z,98876.88
2022-11-01T07:10:08.814Z,98881.09
2022-11-01T07:12:36.550Z,98880.56
2022-11-01T07:15:04.618Z,98872.63
2022-11-01T07:17:32.417Z,98882.63
2022-11-01T07:20:00.181Z,98889.56
2022-11-01T07:22:29.984Z,98891.00
2022-11-01T07:24:59.906Z,98887.38
2022-11-01T07:27:27.633Z,98875.16
2022-11-01T07:29:55.405Z,98878.06
2022-11-01T07:32:23.239Z,98883.81
2022-11-01T07:34:50.981Z,98894.03
2022-11-01T07:37:18.867Z,98890.59
2022-11-01T07:39:47.163Z,98898.63
2022-11-01T07:42:16.314Z,98896.81
2022-11-01T07:44:45.709Z,98900.72
2022-11-01T07:47:13.437Z,98897.84
2022-11-01T07:49:41.156Z,98901.94
2022-11-01T07:52:08.952Z,98905.28
2022-11-01T07:54:36.689Z,98909.47
2022-11-01T07:57:04.465Z,98907.00
2022-11-01T07:59:33.523Z,98900.47
2022-11-01T08:02:05.290Z,98906.22
2022-11-01T08:04:35.813Z,98910.97
2022-11-01T08:07:03.556Z,98914.59
2022-11-01T08:09:31.343Z,98923.09
2022-11-01T08:11:59.397Z,98931.38
2022-11-01T08:14:29.526Z,98941.84
2022-11-01T08:17:01.532Z,98939.41
2022-11-01T08:19:29.249Z,98949.41
2022-11-01T08:21:58.574Z,98946.84
2022-11-01T08:24:26.327Z,98954.31
2022-11-01T08:26:54.220Z,98952.41
2022-11-01T08:29:22.320Z,98953.63
2022-11-01T08:31:52.117Z,98954.72
2022-11-01T08:34:21.440Z,98959.09
2022-11-01T08:36:49.247Z,98955.53
2022-11-01T08:39:17.214Z,98957.25
2022-11-01T08:41:49.255Z,98962.06
2022-11-01T08:44:17.702Z,98965.31
2022-11-01T08:46:45.821Z,98963.22
2022-11-01T08:49:14.639Z,98968.47
2022-11-01T08:51:43.695Z,98973.00
2022-11-01T08:54:13.528Z,98974.56
2022-11-01T08:56:41.221Z,98971.59
2022-11-01T08:59:09.396Z,98977.44
2022-11-01T09:01:38.460Z,98968.88
2022-11-01T09:04:07.470Z,98961.00
2022-11-01T09:06:36.541Z,98956.13
2022-11-01T09:09:06.205Z,98958.09
2022-11-01T09:11:33.933Z,98975.34
2022-11-01T09:14:01.662Z,98974.03
2022-11-01T09:16:29.674Z,98974.53
2022-11-01T09:19:01.450Z,98969.59
2022-11-01T09:21:31.817Z,98973.03
2022-11-01T09:24:02.404Z,98974.63
2022-11-01T09:26:31.574Z,98977.28
2022-11-01T09:28:59.980Z,98982.94
2022-11-01T09:31:28.491Z,98983.34
2022-11-01T09:33:57.231Z,98986.00
2022-11-01T09:36:25.953Z,98980.31
2022-11-01T09:38:53.651Z,98983.25
2022-11-01T09:41:32.625Z,98988.03
2022-11-01T09:44:05.687Z,98988.00
2022-11-01T09:46:43.485Z,98986.03
2022-11-01T09:49:20.375Z,98986.03
2022-11-01T09:51:48.186Z,98983.50
2022-11-01T09:54:24.197Z,98985.34
2022-11-01T09:57:01.775Z,98992.91
2022-11-01T09:59:36.704Z,98989.34
2022-11-01T10:02:25.704Z,98992.66
2022-11-01T10:05:07.950Z,98998.75
2022-11-01T10:07:44.205Z,99006.50
2022-11-01T10:10:25.736Z,98997.25
2022-11-01T10:13:06.561Z,99000.63
2022-11-01T10:15:51.266Z,98993.03
2022-11-01T10:18:28.637Z,98991.22
2022-11-01T10:21:02.873Z,98992.72
2022-11-01T10:23:41.527Z,98989.50
2022-11-01T10:26:14.049Z,98992.06
2022-11-01T10:28:50.351Z,98988.34
2022-11-01T10:31:23.809Z,98993.06
2022-11-01T10:33:58.162Z,98995.75
2022-11-01T10:36:31.355Z,98993.75
2022-11-01T10:39:48.652Z,98987.00
2022-11-01T10:41:57.391Z,98990.34
2022-11-01T10:44:29.778Z,98992.53
2022-11-01T10:47:01.229Z,98992.72
2022-11-01T10:49:52.904Z,98996.22
2022-11-01T10:52:28.142Z,98994.91
2022-11-01T10:54:57.808Z,98995.38
2022-11-01T10:57:37.991Z,98999.28
2022-11-01T11:00:11.745Z,99000.47
2022-11-01T11:02:45.731Z,98995.75
2022-11-01T11:05:14.493Z,98998.09
2022-11-01T11:07:43.038Z,98998.72
2022-11-01T11:10:22.844Z,98997.97
2022-11-01T11:12:57.411Z,99002.72
2022-11-01T11:15:36.313Z,99001.28
2022-11-01T11:18:15.689Z,99005.75
2022-11-01T11:20:44.638Z,99001.59
2022-11-01T11:23:13.752Z,98991.63
2022-11-01T11:25:42.982Z,98989.19
2022-11-01T11:28:25.502Z,98998.09
2022-11-01T11:30:53.900Z,99009.34
2022-11-01T11:33:23.777Z,99003.47
2022-11-01T11:35:57.463Z,99000.41
2022-11-01T11:38:43.554Z,99003.13
2022-11-01T11:41:27.980Z,98995.94
2022-11-01T11:43:55.967Z,98992.97
2022-11-01T11:46:24.967Z,98995.28
2022-11-01T11:48:57.012Z,98998.59
2022-11-01T11:51:27.287Z,98994.06
2022-11-01T11:54:13.059Z,98997.59
2022-11-01T11:56:40.883Z,99001.13
2022-11-01T11:59:18.286Z,98998.06
2022-11-01T12:01:47.755Z,99022.09
2022-11-01T12:04:21.194Z,99031.13
2022-11-01T12:06:49.120Z,99021.22
2022-11-01T12:09:42.610Z,99017.91
2022-11-01T12:12:18.021Z,99023.75
2022-11-01T12:14:45.785Z,99020.06
2022-11-01T12:17:27.923Z,99023.09
2022-11-01T12:20:10.573Z,99019.69
2022-11-01T12:22:41.404Z,99022.97
2022-11-01T12:25:15.061Z,99012.31
2022-11-01T12:27:50.080Z,99014.19
2022-11-01T12:30:21.312Z,99023.19
2022-11-01T12:32:52.229Z,99025.88
2022-11-01T12:35:28.552Z,99022.97
2022-11-01T12:38:39.424Z,99027.66
2022-11-01T12:41:19.907Z,99027.56
2022-11-01T12:43:58.202Z,99029.72
2022-11-01T12:46:32.256Z,99027.50
2022-11-01T12:49:06.398Z,99032.63
2022-11-01T12:51:41.497Z,99030.31
2022-11-01T12:54:15.939Z,99021.63
2022-11-01T12:56:43.783Z,99024.91
2022-11-01T12:59:14.773Z,99035.63
2022-11-01T13:01:52.796Z,99025.75
2022-11-01T13:04:31.527Z,99023.59
2022-11-01T13:07:23.351Z,99026.53
2022-11-01T13:10:02.896Z,99035.34
2022-11-01T13:12:40.513Z,99032.19
2022-11-01T13:15:14.910Z,99030.19
2022-11-01T13:17:51.953Z,99026.16
2022-11-01T13:20:30.100Z,99027.81
2022-11-01T13:23:09.114Z,99019.50
2022-11-01T13:25:43.534Z,99023.06
2022-11-01T13:28:25.938Z,99029.03
2022-11-01T13:31:01.107Z,99027.72
2022-11-01T13:33:37.030Z,99028.75
2022-11-01T13:36:11.234Z,99028.25
2022-11-01T13:38:49.612Z,99027.25
2022-11-01T13:41:27.275Z,99038.13
2022-11-01T13:43:59.844Z,99030.44
2022-11-01T13:46:49.862Z,99031.22
2022-11-01T13:49:39.593Z,99034.03
2022-11-01T13:52:13.907Z,99034.97
2022-11-01T13:54:48.897Z,99027.50
2022-11-01T13:57:18.407Z,99023.59
2022-11-01T13:59:55.480Z,99023.69
2022-11-01T14:02:57.824Z,99010.75
2022-11-01T14:05:39.974Z,99029.53
2022-11-01T14:08:14.788Z,99016.13
2022-11-01T14:10:51.238Z,99013.63
2022-11-01T14:13:31.484Z,99027.25
2022-11-01T14:16:20.997Z,99021.06
2022-11-01T14:19:20.274Z,99027.66
2022-11-01T14:21:52.933Z,99018.53
2022-11-01T14:24:24.299Z,99022.09
2022-11-01T14:27:07.802Z,99018.00
2022-11-01T14:29:37.090Z,99026.41
2022-11-01T14:32:05.379Z,99022.16
2022-11-01T14:34:36.961Z,99027.84
2022-11-01T14:37:20.145Z,99025.00
2022-11-01T14:40:29.011Z,99027.81
2022-11-01T14:43:04.612Z,99031.59
2022-11-01T14:45:35.268Z,99038.84
2022-11-01T14:48:12.602Z,99039.34
2022-11-01T14:50:47.621Z,99047.47
2022-11-01T14:53:23.641Z,99050.66
2022-11-01T14:55:51.628Z,99064.06
2022-11-01T14:58:23.160Z,99057.59
2022-11-01T15:00:52.917Z,99062.06
2022-11-01T15:03:20.910Z,99065.25
2022-11-01T15:05:51.128Z,99059.78
2022-11-01T15:08:30.110Z,99050.38
2022-11-01T15:11:02.336Z,99056.59
2022-11-01T15:13:34.122Z,99064.72
2022-11-01T15:16:15.580Z,99060.47
2022-11-01T15:18:47.904Z,99056.72
2022-11-01T15:23:53.334Z,99061.63
2022-11-01T15:26:24.783Z,99054.88
2022-11-01T15:28:56.325Z,99060.94
2022-11-01T15:31:24.293Z,99059.66
2022-11-01T15:33:57.410Z,99066.38
2022-11-01T15:36:31.484Z,99065.53
2022-11-01T15:39:02.486Z,99063.88
2022-11-01T15:41:32.525Z,99066.41
2022-11-01T15:44:03.695Z,99061.34
2022-11-01T15:46:34.144Z,99059.97
2022-11-01T15:49:07.625Z,99063.19
2022-11-01T15:51:40.567Z,99056.16
2022-11-01T15:54:19.128Z,99062.78
2022-11-01T15:56:53.998Z,99061.59
2022-11-01T15:59:27.741Z,99073.31
2022-11-01T16:01:59.758Z,99070.63
2022-11-01T16:04:31.421Z,99085.50
2022-11-01T16:07:06.111Z,99071.97
2022-11-01T16:09:39.500Z,99082.50
2022-11-01T16:12:17.666Z,99082.63
2022-11-01T16:14:55.694Z,99083.78
2022-11-01T16:17:26.848Z,99089.34
2022-11-01T16:19:55.141Z,99094.44
2022-11-01T16:22:29.157Z,99100.16
2022-11-01T16:25:17.363Z,99093.56
2022-11-01T16:28:03.791Z,99105.78
2022-11-01T16:30:46.225Z,99111.59
2022-11-01T16:33:22.000Z,99112.47
2022-11-01T16:35:52.013Z,99113.28
2022-11-01T16:38:38.617Z,99118.41
2022-11-01T16:41:17.955Z,99117.13
2022-11-01T16:43:46.014Z,99106.97
2022-11-01T16:46:15.580Z,99116.38
2022-11-01T16:48:52.932Z,99117.75
2022-11-01T16:51:21.339Z,99122.69
2022-11-01T16:53:50.583Z,99122.78
2022-11-01T16:56:36.202Z,99122.59
2022-11-01T16:59:07.856Z,99132.31
2022-11-01T17:01:37.122Z,99133.38
2022-11-01T17:04:05.432Z,99136.22
2022-11-01T17:06:37.730Z,99139.38
2022-11-01T17:09:11.571Z,99146.28
2022-11-01T17:11:39.430Z,99149.13
2022-11-01T17:14:07.142Z,99147.22
2022-11-01T17:16:39.454Z,99150.31
2022-11-01T17:19:07.854Z,99150.56
2022-11-01T17:21:39.504Z,99157.50
2022-11-01T17:24:07.813Z,99153.34
2022-11-01T17:26:35.768Z,99160.59
2022-11-01T17:29:03.963Z,99171.97
2022-11-01T17:31:31.705Z,99164.00
2022-11-01T17:34:00.794Z,99173.06
2022-11-01T17:36:28.751Z,99170.81
2022-11-01T17:38:56.492Z,99168.50
2022-11-01T17:41:24.337Z,99176.06
2022-11-01T17:43:52.743Z,99180.13
2022-11-01T17:46:25.194Z,99178.47
2022-11-01T17:48:52.924Z,99177.41
2022-11-01T17:51:23.042Z,99176.41
2022-11-01T17:53:54.695Z,99182.50
2022-11-01T17:56:22.542Z,99182.84
2022-11-01T17:58:52.210Z,99185.72
2022-11-01T18:01:20.709Z,99186.00
2022-11-01T18:03:49.192Z,99195.31
2022-11-01T18:06:17.667Z,99182.69
2022-11-01T18:08:49.755Z,99186.66
2022-11-01T18:11:34.970Z,99196.66
2022-11-01T18:14:11.166Z,99198.56
2022-11-01T18:16:46.982Z,99199.03
2022-11-01T18:19:49.162Z,99199.94
2022-11-01T18:22:31.551Z,99198.16
2022-11-01T18:25:06.180Z,99199.69
2022-11-01T18:27:35.775Z,99196.16
2022-11-01T18:30:13.865Z,99204.84
2022-11-01T18:32:48.662Z,99208.78
2022-11-01T18:35:27.506Z,99208.03
2022-11-01T18:38:13.362Z,99200.59
2022-11-01T18:40:51.532Z,99202.09
2022-11-01T18:43:21.040Z,99191.44
2022-11-01T18:46:11.551Z,99199.78
2022-11-01T18:48:37.664Z,99197.34
2022-11-01T18:51:14.125Z,99194.50
2022-11-01T18:53:41.897Z,99199.31
2022-11-01T18:56:21.236Z,99204.88
2022-11-01T18:58:50.186Z,99207.34
2022-11-01T19:01:20.041Z,99198.22
2022-11-01T19:03:56.013Z,99209.63
2022-11-01T19:06:27.073Z,99205.31
2022-11-01T19:08:57.200Z,99202.09
2022-11-01T19:11:29.742Z,99203.41
2022-11-01T19:13:59.465Z,99203.72
2022-11-01T19:16:29.585Z,99201.09
2022-11-01T19:18:57.784Z,99201.81
2022-11-01T19:21:26.024Z,99198.22
2022-11-01T19:23:55.201Z,99191.72
2022-11-01T19:26:26.686Z,99193.88
2022-11-01T19:28:55.842Z,99194.97
2022-11-01T19:31:27.261Z,99195.91
2022-11-01T19:33:58.130Z,99194.22
2022-11-01T19:39:22.904Z,99197.84
2022-11-01T19:41:51.493Z,99194.47
2022-11-01T19:44:22.561Z,99204.91
2022-11-01T19:46:52.285Z,99202.94
2022-11-01T19:49:24.720Z,99204.22
2022-11-01T19:52:02.635Z,99206.19
2022-11-01T19:54:35.731Z,99200.66
2022-11-01T19:57:15.915Z,99204.25
2022-11-01T19:59:45.201Z,99205.00
2022-11-01T20:02:17.093Z,99201.84
2022-11-01T20:04:45.295Z,99205.72
2022-11-01T20:07:16.797Z,99202.56
2022-11-01T20:09:44.942Z,99210.78
2022-11-01T20:12:12.712Z,99215.72
2022-11-01T20:14:40.809Z,99215.09
2022-11-01T20:17:09.992Z,99209.78
2022-11-01T20:19:37.942Z,99214.38
2022-11-01T20:22:05.949Z,99209.22
2022-11-01T20:24:36.815Z,99222.84
2022-11-01T20:27:04.792Z,99222.34
2022-11-01T20:29:32.583Z,99227.56
2022-11-01T20:32:00.332Z,99221.16
2022-11-01T20:34:29.507Z,99230.22
2022-11-01T20:37:22.642Z,99226.09
2022-11-01T20:39:44.917Z,99236.31
2022-11-01T20:42:12.684Z,99234.94
2022-11-01T20:44:40.492Z,99233.75
2022-11-01T20:47:08.190Z,99242.81
2022-11-01T20:49:37.345Z,99243.78
2022-11-01T20:52:33.694Z,99243.13
2022-11-01T20:54:53.657Z,99245.06
2022-11-01T20:57:27.885Z,99246.28
2022-11-01T20:59:56.235Z,99238.94
2022-11-01T21:02:24.262Z,99234.31
2022-11-01T21:05:00.314Z,99240.16
2022-11-01T21:07:30.125Z,99236.00
2022-11-01T21:09:58.189Z,99239.16
2022-11-01T21:12:43.327Z,99243.22
2022-11-01T21:15:33.394Z,99237.94
2022-11-01T21:18:26.233Z,99247.28
2022-11-01T21:20:56.501Z,99236.59
2022-11-01T21:23:28.278Z,99244.22
2022-11-01T21:25:59.045Z,99241.97
2022-11-01T21:28:30.693Z,99243.84
2022-11-01T21:31:04.154Z,99251.50
2022-11-01T21:33:36.551Z,99260.19
2022-11-01T21:36:17.527Z,99251.09
2022-11-01T21:38:47.928Z,99252.75
2022-11-01T21:41:31.452Z,99256.53
2022-11-01T21:44:12.908Z,99253.47
2022-11-01T21:46:40.955Z,99257.69
2022-11-01T21:49:24.612Z,99261.53
2022-11-01T21:51:54.183Z,99254.41
2022-11-01T21:54:22.475Z,99261.03
2022-11-01T21:56:50.403Z,99261.78
2022-11-01T21:59:18.333Z,99261.31
2022-11-01T22:01:49.140Z,99267.22
2022-11-01T22:04:18.208Z,99262.97
2022-11-01T22:06:47.833Z,99263.50
2022-11-01T22:09:18.136Z,99260.63
2022-11-01T22:11:46.064Z,99272.16
2022-11-01T22:14:14.041Z,99272.38
2022-11-01T22:16:41.967Z,99269.28
2022-11-01T22:19:09.659Z,99269.47
2022-11-01T22:21:37.497Z,99265.25
2022-11-01T22:24:06.608Z,99265.69
2022-11-01T22:26:35.780Z,99261.03
2022-11-01T22:29:03.523Z,99263.28
2022-11-01T22:31:31.465Z,99268.06
2022-11-01T22:33:59.241Z,99270.03
2022-11-01T22:36:29.085Z,99269.47
2022-11-01T22:38:58.575Z,99278.31
2022-11-01T22:41:31.887Z,99276.75
2022-11-01T22:44:05.349Z,99270.25
2022-11-01T22:46:43.850Z,99284.13
2022-11-01T22:49:16.322Z,99288.09
2022-11-01T22:51:46.783Z,99283.47
2022-11-01T22:54:40.038Z,99282.16
2022-11-01T22:57:15.456Z,99288.06
2022-11-01T22:59:47.438Z,99290.50
2022-11-01T23:02:27.590Z,99290.22
2022-11-01T23:05:02.400Z,99295.44
2022-11-01T23:07:35.163Z,99289.28
2022-11-01T23:10:06.208Z,99290.97
2022-11-01T23:12:54.694Z,99294.03
2022-11-01T23:15:30.176Z,99299.06
2022-11-01T23:18:03.499Z,99296.19
2022-11-01T23:20:31.310Z,99293.53
2022-11-01T23:23:00.612Z,99296.91
2022-11-01T23:25:30.155Z,99298.81
2022-11-01T23:27:57.880Z,99296.28
2022-11-01T23:30:27.057Z,99306.34
2022-11-01T23:32:54.929Z,99301.97
2022-11-01T23:35:23.112Z,99308.41
2022-11-01T23:37:52.678Z,99300.75
2022-11-01T23:40:22.253Z,99312.53
2022-11-01T23:42:50.156Z,99316.56
2022-11-01T23:45:25.785Z,99316.13
2022-11-01T23:47:54.914Z,99304.06
2022-11-01T23:50:28.458Z,99319.31
2022-11-01T23:52:59.715Z,99309.97
2022-11-01T23:55:29.512Z,99307.25
2022-11-01T23:57:59.934Z,99313.81
